createdAt,value
2023-04-17T00:01:16.659Z,59.21
2023-04-17T00:06:20.423Z,59.31
2023-04-17T00:11:23.121Z,59.67
2023-04-17T00:16:27.402Z,58.70
2023-04-17T00:21:33.074Z,59.32
2023-04-17T00:26:35.965Z,59.79
2023-04-17T00:31:39.291Z,59.90
2023-04-17T00:36:41.753Z,60.40
2023-04-17T00:41:44.589Z,59.52
2023-04-17T00:46:49.034Z,58.84
2023-04-17T00:51:53.146Z,58.94
2023-04-17T00:56:57.884Z,57.82
2023-04-17T01:02:02.362Z,59.20
2023-04-17T01:07:05.621Z,58.70
2023-04-17T01:12:24.643Z,58.28
2023-04-17T01:17:27.985Z,57.70
2023-04-17T01:22:30.511Z,58.62
2023-04-17T01:27:35.326Z,59.32
2023-04-17T01:32:38.320Z,58.66
2023-04-17T01:37:41.433Z,59.47
2023-04-17T01:42:44.263Z,58.60
2023-04-17T01:47:47.557Z,58.83
2023-04-17T01:52:50.461Z,58.67
2023-04-17T01:57:53.701Z,58.69
2023-04-17T02:02:56.983Z,59.52
2023-04-17T02:07:59.359Z,59.09
2023-04-17T02:13:02.122Z,59.88
2023-04-17T02:18:09.532Z,60.97
2023-04-17T02:23:12.489Z,60.19
2023-04-17T02:28:15.858Z,60.74
2023-04-17T02:33:18.547Z,60.33
2023-04-17T02:38:22.794Z,61.04
2023-04-17T02:43:25.447Z,60.53
2023-04-17T02:48:27.722Z,60.81
2023-04-17T02:53:30.632Z,60.32
2023-04-17T02:58:32.993Z,60.80
2023-04-17T03:03:35.849Z,60.33
2023-04-17T03:08:45.608Z,59.65
2023-04-17T03:13:48.129Z,59.62
2023-04-17T03:18:50.637Z,60.08
2023-04-17T03:23:53.070Z,59.61
2023-04-17T03:28:57.630Z,59.93
2023-04-17T03:34:01.037Z,58.73
2023-04-17T03:39:03.909Z,58.74
2023-04-17T03:44:09.601Z,57.35
2023-04-17T03:49:12.645Z,56.98
2023-04-17T03:54:16.390Z,55.35
2023-04-17T03:59:21.181Z,52.42
2023-04-17T04:04:26.142Z,46.99
2023-04-17T04:09:38.410Z,43.20
2023-04-17T04:14:43.167Z,39.80
2023-04-17T04:19:48.071Z,37.28
2023-04-17T04:24:54.478Z,34.76
2023-04-17T04:30:06.178Z,33.36
2023-04-17T04:35:14.376Z,30.87
2023-04-17T04:40:18.257Z,30.08
2023-04-17T04:45:21.502Z,28.59
2023-04-17T04:50:24.742Z,26.95
2023-04-17T04:55:30.886Z,26.18
2023-04-17T05:00:34.260Z,25.40
2023-04-17T05:05:37.947Z,23.41
2023-04-17T05:10:41.069Z,20.67
2023-04-17T05:15:44.299Z,20.94
2023-04-17T05:20:48.188Z,21.99
2023-04-17T05:25:51.499Z,20.11
2023-04-17T05:30:57.805Z,18.99
2023-04-17T05:36:09.877Z,18.89
2023-04-17T05:41:18.078Z,18.63
2023-04-17T05:46:22.114Z,19.61
2023-04-17T05:51:25.147Z,17.64
2023-04-17T05:56:28.595Z,17.06
2023-04-17T06:01:32.798Z,17.41
2023-04-17T06:06:35.924Z,17.96
2023-04-17T06:11:38.455Z,18.19
2023-04-17T06:16:42.715Z,17.28
2023-04-17T06:21:45.736Z,15.93
2023-04-17T06:26:48.115Z,15.27
2023-04-17T06:31:51.616Z,15.33
2023-04-17T06:36:56.134Z,15.61
2023-04-17T06:41:59.561Z,16.08
2023-04-17T06:47:04.964Z,15.30
2023-04-17T06:52:07.316Z,16.40
2023-04-17T06:57:12.508Z,15.76
2023-04-17T07:02:15.186Z,15.89
2023-04-17T07:07:18.379Z,17.21
2023-04-17T07:12:22.917Z,16.77
2023-04-17T07:17:27.425Z,16.94
2023-04-17T07:22:31.215Z,17.01
2023-04-17T07:27:35.019Z,17.22
2023-04-17T07:32:38.431Z,17.79
2023-04-17T07:37:40.751Z,18.79
2023-04-17T07:42:43.576Z,17.89
2023-04-17T07:47:47.295Z,18.08
2023-04-17T07:52:50.669Z,18.93
2023-04-17T07:57:53.508Z,18.22
2023-04-17T08:02:56.226Z,19.65
2023-04-17T08:08:02.667Z,19.15
2023-04-17T08:13:04.974Z,19.28
2023-04-17T08:18:10.166Z,19.60
2023-04-17T08:23:14.366Z,19.22
2023-04-17T08:28:17.063Z,18.68
2023-04-17T08:33:20.018Z,19.63
2023-04-17T08:38:23.007Z,19.89
2023-04-17T08:43:29.556Z,19.62
2023-04-17T08:48:32.114Z,19.37
2023-04-17T08:53:35.609Z,19.91
2023-04-17T08:58:39.948Z,20.24
2023-04-17T09:03:45.589Z,20.26
2023-04-17T09:08:58.869Z,19.51
2023-04-17T09:14:03.123Z,20.70
2023-04-17T09:19:10.312Z,20.65
2023-04-17T09:24:13.224Z,19.35
2023-04-17T09:29:15.966Z,20.29
2023-04-17T09:34:21.666Z,19.81
2023-04-17T09:39:25.770Z,19.57
2023-04-17T09:44:30.396Z,19.48
2023-04-17T09:49:49.879Z,19.20
2023-04-17T09:54:54.595Z,19.44
2023-04-17T10:00:02.103Z,18.40
2023-04-17T10:05:11.959Z,19.17
2023-04-17T10:10:31.401Z,19.16
2023-04-17T10:15:35.047Z,19.41
2023-04-17T10:20:39.057Z,19.17
2023-04-17T10:25:43.233Z,18.90
2023-04-17T10:30:55.701Z,18.97
2023-04-17T10:35:59.437Z,19.32
2023-04-17T10:41:04.470Z,18.57
2023-04-17T10:46:10.350Z,18.87
2023-04-17T10:51:22.606Z,18.92
2023-04-17T10:56:51.085Z,19.05
2023-04-17T11:01:58.182Z,19.45
2023-04-17T11:07:02.022Z,19.66
2023-04-17T11:12:06.521Z,19.41
2023-04-17T11:17:10.349Z,19.48
2023-04-17T11:22:13.811Z,19.27
2023-04-17T11:27:16.184Z,20.06
2023-04-17T11:32:19.047Z,19.32
2023-04-17T11:37:21.904Z,19.99
2023-04-17T11:42:28.130Z,19.74
2023-04-17T11:47:31.568Z,19.49
2023-04-17T11:52:37.458Z,19.95
2023-04-17T11:57:46.663Z,19.89
2023-04-17T12:02:50.905Z,19.96
2023-04-17T12:08:02.130Z,19.84
2023-04-17T12:13:05.324Z,19.72
2023-04-17T12:18:11.277Z,19.80
2023-04-17T12:23:14.271Z,20.05
2023-04-17T12:28:18.130Z,20.72
2023-04-17T12:33:21.119Z,20.34
2023-04-17T12:38:24.030Z,20.68
2023-04-17T12:43:26.996Z,20.16
2023-04-17T12:48:31.378Z,20.38
2023-04-17T12:53:35.168Z,20.25
2023-04-17T12:58:39.980Z,20.25
2023-04-17T13:03:42.763Z,20.42
2023-04-17T13:08:46.546Z,20.08
2023-04-17T13:13:48.769Z,20.24
2023-04-17T13:18:51.596Z,21.09
2023-04-17T13:23:53.883Z,19.92
2023-04-17T13:28:57.465Z,20.24
2023-04-17T13:33:59.713Z,20.50
2023-04-17T13:39:02.278Z,20.10
2023-04-17T13:44:04.895Z,20.17
2023-04-17T13:49:08.128Z,20.57
2023-04-17T13:54:10.985Z,21.20
2023-04-17T13:59:15.136Z,21.12
2023-04-17T14:04:18.398Z,20.75
2023-04-17T14:09:21.741Z,21.34
2023-04-17T14:14:24.138Z,21.24
2023-04-17T14:19:26.798Z,21.03
2023-04-17T14:24:29.628Z,21.78
2023-04-17T14:29:32.971Z,21.60
2023-04-17T14:34:35.790Z,21.84
2023-04-17T14:39:38.735Z,21.31
2023-04-17T14:44:43.716Z,21.84
2023-04-17T14:49:46.116Z,21.60
2023-04-17T14:54:48.919Z,22.00
2023-04-17T14:59:52.143Z,22.92
2023-04-17T15:04:55.238Z,22.22
2023-04-17T15:09:57.573Z,22.44
2023-04-17T15:14:59.982Z,22.59
2023-04-17T15:20:02.431Z,22.76
2023-04-17T15:25:06.044Z,23.85
2023-04-17T15:30:09.689Z,23.49
2023-04-17T15:35:12.141Z,24.28
2023-04-17T15:40:14.494Z,24.79
2023-04-17T15:45:16.887Z,24.90
2023-04-17T15:50:20.512Z,25.58
2023-04-17T15:55:23.060Z,26.07
2023-04-17T16:00:25.955Z,27.40
2023-04-17T16:05:30.450Z,27.42
2023-04-17T16:10:34.967Z,28.42
2023-04-17T16:15:37.221Z,28.78
2023-04-17T16:20:39.844Z,29.09
2023-04-17T16:25:42.401Z,30.55
2023-04-17T16:30:44.665Z,29.03
2023-04-17T16:35:47.523Z,29.55
2023-04-17T16:40:50.225Z,29.58
2023-04-17T16:45:52.665Z,29.79
2023-04-17T16:50:57.087Z,29.81
2023-04-17T16:55:59.568Z,30.61
2023-04-17T17:01:01.817Z,30.40
2023-04-17T17:06:07.267Z,31.29
2023-04-17T17:11:09.508Z,30.16
2023-04-17T17:16:12.602Z,30.51
2023-04-17T17:21:15.755Z,30.49
2023-04-17T17:26:18.608Z,31.22
2023-04-17T17:31:21.870Z,32.31
2023-04-17T17:36:24.501Z,32.22
2023-04-17T17:41:26.803Z,32.04
2023-04-17T17:46:30.849Z,32.69
2023-04-17T17:51:33.262Z,33.59
2023-04-17T17:56:35.537Z,33.71
2023-04-17T18:01:40.555Z,34.22
2023-04-17T18:06:42.998Z,34.22
2023-04-17T18:11:45.740Z,34.25
2023-04-17T18:16:48.843Z,34.90
2023-04-17T18:21:51.828Z,34.39
2023-04-17T18:26:54.325Z,35.62
2023-04-17T18:31:56.629Z,35.39
2023-04-17T18:37:00.626Z,35.74
2023-04-17T18:42:03.880Z,36.73
2023-04-17T18:47:06.784Z,37.09
2023-04-17T18:52:09.302Z,37.37
2023-04-17T18:57:11.516Z,37.20
2023-04-17T19:02:13.940Z,37.21
2023-04-17T19:07:16.137Z,37.44
2023-04-17T19:12:18.441Z,37.74
2023-04-17T19:17:20.830Z,37.90
2023-04-17T19:22:23.547Z,37.76
2023-04-17T19:27:27.014Z,38.36
2023-04-17T19:32:31.544Z,37.77
2023-04-17T19:37:34.860Z,37.85
2023-04-17T19:42:37.499Z,37.72
2023-04-17T19:47:40.681Z,38.02
2023-04-17T19:52:43.981Z,38.28
2023-04-17T19:57:48.453Z,38.26
2023-04-17T20:02:51.283Z,38.58
2023-04-17T20:07:54.549Z,38.49
2023-04-17T20:12:57.350Z,38.63
2023-04-17T20:18:00.888Z,38.47
2023-04-17T20:23:04.149Z,38.47
2023-04-17T20:28:06.562Z,37.73
2023-04-17T20:33:09.621Z,38.42
2023-04-17T20:38:12.450Z,37.85
2023-04-17T20:43:15.233Z,38.10
2023-04-17T20:48:17.607Z,37.90
2023-04-17T20:53:20.552Z,39.09
2023-04-17T20:58:24.924Z,38.85
2023-04-17T21:03:29.750Z,38.87
2023-04-17T21:08:33.269Z,38.95
2023-04-17T21:13:35.556Z,39.48
2023-04-17T21:18:38.985Z,40.29
2023-04-17T21:23:41.263Z,39.69
2023-04-17T21:28:44.098Z,40.13
2023-04-17T21:33:46.887Z,40.90
2023-04-17T21:38:49.638Z,41.17
2023-04-17T21:43:54.769Z,40.66
2023-04-17T21:48:57.184Z,41.13
2023-04-17T21:54:01.071Z,40.95
2023-04-17T21:59:04.430Z,41.06
2023-04-17T22:04:06.810Z,40.12
2023-04-17T22:09:10.104Z,40.10
2023-04-17T22:14:13.050Z,40.01
2023-04-17T22:19:16.254Z,39.99
2023-04-17T22:24:18.978Z,40.97
2023-04-17T22:29:21.261Z,40.63
2023-04-17T22:34:24.855Z,40.70
2023-04-17T22:39:27.575Z,40.88
2023-04-17T22:44:30.534Z,41.63
2023-04-17T22:49:38.724Z,42.05
2023-04-17T22:54:43.035Z,42.59
2023-04-17T22:59:46.498Z,42.98
2023-04-17T23:04:49.870Z,43.50
2023-04-17T23:09:52.567Z,43.98
2023-04-17T23:14:54.863Z,43.54
2023-04-17T23:19:57.177Z,45.03
2023-04-17T23:25:00.535Z,45.08
2023-04-17T23:30:04.338Z,45.25
2023-04-17T23:35:07.668Z,44.94
2023-04-17T23:40:10.291Z,46.45
2023-04-17T23:45:12.790Z,46.58
2023-04-17T23:50:15.319Z,46.36
2023-04-17T23:55:17.550Z,47.32
